Map

Track Data

SID SEASON NUMBER BASIN SUBBASIN NAME ISO_TIME NATURE LAT LON WMO_WIND WMO_PRES WMO_AGENCY TRACK_TYPE DIST2LAND LANDFALL IFLAG USA_AGENCY USA_ATCF_ID USA_LAT USA_LON USA_RECORD USA_STATUS USA_WIND USA_PRES USA_SSHS USA_R34_NE USA_R34_SE USA_R34_SW USA_R34_NW USA_R50_NE USA_R50_SE USA_R50_SW USA_R50_NW USA_R64_NE USA_R64_SE USA_R64_SW USA_R64_NW USA_POCI USA_ROCI USA_RMW USA_EYE TOKYO_LAT TOKYO_LON TOKYO_GRADE TOKYO_WIND TOKYO_PRES TOKYO_R50_DIR TOKYO_R50_LONG TOKYO_R50_SHORT TOKYO_R30_DIR TOKYO_R30_LONG TOKYO_R30_SHORT TOKYO_LAND CMA_LAT CMA_LON CMA_CAT CMA_WIND CMA_PRES HKO_LAT HKO_LON HKO_CAT HKO_WIND HKO_PRES NEWDELHI_LAT NEWDELHI_LON NEWDELHI_GRADE NEWDELHI_WIND NEWDELHI_PRES NEWDELHI_CI NEWDELHI_DP NEWDELHI_POCI REUNION_LAT REUNION_LON REUNION_TYPE REUNION_WIND REUNION_PRES REUNION_TNUM REUNION_CI REUNION_RMW REUNION_R34_NE REUNION_R34_SE REUNION_R34_SW REUNION_R34_NW REUNION_R50_NE REUNION_R50_SE REUNION_R50_SW REUNION_R50_NW REUNION_R64_NE REUNION_R64_SE REUNION_R64_SW REUNION_R64_NW BOM_LAT BOM_LON BOM_TYPE BOM_WIND BOM_PRES BOM_TNUM BOM_CI BOM_RMW BOM_R34_NE BOM_R34_SE BOM_R34_SW BOM_R34_NW BOM_R50_NE BOM_R50_SE BOM_R50_SW BOM_R50_NW BOM_R64_NE BOM_R64_SE BOM_R64_SW BOM_R64_NW BOM_ROCI BOM_POCI BOM_EYE BOM_POS_METHOD BOM_PRES_METHOD NADI_LAT NADI_LON NADI_CAT NADI_WIND NADI_PRES WELLINGTON_LAT WELLINGTON_LON WELLINGTON_WIND WELLINGTON_PRES DS824_LAT DS824_LON DS824_STAGE DS824_WIND DS824_PRES TD9636_LAT TD9636_LON TD9636_STAGE TD9636_WIND TD9636_PRES TD9635_LAT TD9635_LON TD9635_WIND TD9635_PRES TD9635_ROCI NEUMANN_LAT NEUMANN_LON NEUMANN_CLASS NEUMANN_WIND NEUMANN_PRES MLC_LAT MLC_LON MLC_CLASS MLC_WIND MLC_PRES USA_GUST BOM_GUST BOM_GUST_PER REUNION_GUST REUNION_GUST_PER USA_SEAHGT USA_SEARAD_NE USA_SEARAD_SE USA_SEARAD_SW USA_SEARAD_NW STORM_SPEED STORM_DIR
1964340S12177 1965 116 SP MM NOT_NAMED 1964-12-04 12:00:00 TS -11.8000 176.500 main 589 578 O________OO___ jtwc_sh SH061965 -11.8000 176.500 -1 -11.8000 176.500 TC -11.8000 176.500 4 3 0
1964340S12177 1965 116 SP MM NOT_NAMED 1964-12-04 15:00:00 TS -11.9445 176.481 main 578 558 P________PP___ SH061965 -11.9350 176.462 -1 -11.9350 176.462 TC -11.9636 176.518 4 3 178
1964340S12177 1965 116 SP MM NOT_NAMED 1964-12-04 18:00:00 TS -12.1139 176.526 main 558 529 O________OP___ jtwc_sh SH061965 -12.1000 176.500 -1 -12.1000 176.500 TC -12.1417 176.578 4 4 152
1964340S12177 1965 116 SP MM NOT_NAMED 1964-12-04 21:00:00 TS -12.3296 176.692 main 529 486 P________PP___ SH061965 -12.3199 176.675 -1 -12.3199 176.675 TC -12.3490 176.725 4 7 136
1964340S12177 1965 116 SP MM NOT_NAMED 1964-12-05 00:00:00 TS -12.6000 177.000 main 486 438 O________OO_O_ jtwc_sh SH061965 -12.6000 177.000 -1 -12.6000 177.000 TC 65 -12.6000 177.000 4 -12.6000 177.000 TC 35 10 128
1964340S12177 1965 116 SP MM NOT_NAMED 1964-12-05 03:00:00 TS -12.9179 177.467 main 434 382 P________PP_P_ SH061965 -12.9351 177.462 -1 -12.9351 177.462 TC 65 -12.9037 177.428 4 -12.8777 177.562 TC 37 12 124
1964340S12177 1965 116 SP MM NOT_NAMED 1964-12-05 06:00:00 TS -13.2663 178.008 main 372 320 O________OP_O_ jtwc_sh SH061965 -13.3000 178.000 -1 -13.3000 178.000 TC 65 -13.2488 177.954 4 -13.2000 178.100 TC 40 13 124
1964340S12177 1965 116 SP MM NOT_NAMED 1964-12-05 09:00:00 TS -13.6280 178.541 main 320 260 P________PP_P_ SH061965 -13.6501 178.537 -1 -13.6501 178.537 TC 65 -13.6194 178.503 4 -13.5924 178.587 TC 45 12 127
1964340S12177 1965 116 SP MM NOT_NAMED 1964-12-05 12:00:00 TS -14.0000 179.000 main 260 219 O________OO_O_ jtwc_sh SH061965 -14.0000 179.000 -1 -14.0000 179.000 TC 65 -14.0000 179.000 4 -14.0000 179.000 TC 50 10 134
1964340S12177 1965 116 SP MM NOT_NAMED 1964-12-05 15:00:00 TS -14.3412 179.298 main 219 170 P________PP_P_ SH061965 -14.3423 179.280 -1 -14.3423 179.280 TC 65 -14.3303 179.301 4 -14.3499 179.330 TC 55 9 143
1964340S12177 1965 116 SP MM NOT_NAMED 1964-12-05 18:00:00 TS -14.6934 179.536 main 170 134 O________OP_O_ jtwc_sh SH061965 -14.7000 179.500 -1 -14.7000 179.500 TC 65 -14.6737 179.545 4 -14.7000 179.600 TC 60 9 147
1964340S12177 1965 116 SP MM NOT_NAMED 1964-12-05 21:00:00 TS -15.0606 179.785 main 123 81 P________PP_P_ SH061965 -15.0624 179.763 -1 -15.0624 179.763 TC 65 -15.0552 179.792 4 -15.0623 179.821 TC 60 10 146
1964340S12177 1965 116 SP MM NOT_NAMED 1964-12-06 00:00:00 TS -15.5000 180.100 main 81 61 O________OO_O_ jtwc_sh SH061965 -15.5000 -179.900 -1 -15.5000 180.100 TC 65 -15.5000 -179.900 4 -15.5000 -179.900 TC 60 13 143
1964340S12177 1965 116 SP MM NOT_NAMED 1964-12-06 03:00:00 TS -16.0655 180.560 main 75 74 P________PP_P_ SH061965 -16.0700 -179.438 -1 -16.0700 -179.438 TC 65 -16.0520 -179.440 4 -16.0701 -179.445 TC 62 15 141
1964340S12177 1965 116 SP MM NOT_NAMED 1964-12-06 06:00:00 TS -16.6908 181.097 main 128 128 O________OP_O_ jtwc_sh SH061965 -16.7000 -178.900 -1 -16.7000 181.100 TC 65 -16.6632 -178.911 4 -16.7000 -178.900 TC 65 16 140
1964340S12177 1965 116 SP MM NOT_NAMED 1964-12-06 09:00:00 TS -17.3094 181.655 main 199 199 P________PP_P_ SH061965 -17.3150 -178.342 -1 -17.3150 -178.342 TC 65 -17.2927 -178.352 4 -17.3150 -178.342 TC 62 16 139
1964340S12177 1965 116 SP MM NOT_NAMED 1964-12-06 12:00:00 TS -17.9000 182.200 main 273 273 O________OO_O_ jtwc_sh SH061965 -17.9000 -177.800 -1 -17.9000 182.200 TC 65 -17.9000 -177.800 4 -17.9000 -177.800 TC 60 15 140
1964340S12177 1965 116 SP MM NOT_NAMED 1964-12-06 15:00:00 TS -18.4166 182.646 main 337 337 P________PP_P_ SH061965 -18.4147 -177.342 -1 -18.4147 -177.342 TC 65 -18.4223 -177.388 4 -18.4147 -177.342 TC 60 13 140
1964340S12177 1965 116 SP MM NOT_NAMED 1964-12-06 18:00:00 TS -18.9047 183.080 main 412 412 O________OP_O_ jtwc_sh SH061965 -18.9000 -176.900 -1 -18.9000 183.100 TC 65 -18.9187 -176.980 4 -18.9000 -176.900 TC 60 13 140
1964340S12177 1965 116 SP MM NOT_NAMED 1964-12-06 21:00:00 TS -19.3973 183.531 main 478 478 P________PP_P_ SH061965 -19.3995 -176.452 -1 -19.3995 -176.452 TC 65 -19.4059 -176.506 4 -19.3843 -176.466 TC 57 14 136
1964340S12177 1965 116 SP MM NOT_NAMED 1964-12-07 00:00:00 TS -19.9000 184.100 main 562 562 O________OO_O_ jtwc_sh SH061965 -19.9000 -175.900 -1 -19.9000 184.100 TC 65 -19.9000 -175.900 4 -19.9000 -175.900 TC 55 16 130
1964340S12177 1965 116 SP MM NOT_NAMED 1964-12-07 03:00:00 TS -20.4259 184.854 main 663 663 P________PP_P_ SH061965 -20.3918 -175.197 -1 -20.3918 -175.197 TC 65 -20.4124 -175.110 4 -20.5075 -175.083 TC 50 19 124
1964340S12177 1965 116 SP MM NOT_NAMED 1964-12-07 06:00:00 TS -20.9596 185.784 main 778 778 O________OP_O_ jtwc_sh SH061965 -20.9000 -174.300 -1 -20.9000 185.700 TC 65 -20.9384 -174.164 4 -21.1000 -174.100 TC 45 22 120
1964340S12177 1965 116 SP MM NOT_NAMED 1964-12-07 09:00:00 TS -21.4851 186.853 main 863 862 P________PP_P_ SH061965 -21.4421 -173.207 -1 -21.4421 -173.207 TC 65 -21.4701 -173.111 4 -21.5861 -173.061 TC 40 23 117
1964340S12177 1965 116 SP MM NOT_NAMED 1964-12-07 12:00:00 TS -22.0000 188.000 main 917 O________OO_O_ jtwc_sh SH061965 -22.0000 -172.000 -1 -22.0000 188.000 TC 65 -22.0000 -172.000 4 -22.0000 -172.000 TC 35 24 116

Digital Typhoon Data and Search

About IBTrACS Database

This database is a web-friendly format of International Best Track Archive for Climate Stewardship (IBTrACS), a global best track data archive curated by NOAA dating back to 1842.

Updated: 2021-12-01